Time;durP1;ratioP1;P1;durP2;ratioP2;P2;SDS_P1;SDS_P2;PMS_P1;PMS_P2;Temp;Humidity;BMP_temperature;BMP_pressure;BME280_temperature;BME280_humidity;BME280_pressure;Samples;Min_cycle;Max_cycle;Signal;HPM_P1;HPM_P2
2020/12/13 00:00:50;;;;;;;21.63;15.10;;;12.00;99.90;;;;;;5015005;28;20175;-74
2020/12/13 00:03:16;;;;;;;24.50;17.60;;;12.00;99.90;;;;;;5014605;28;20412;-74
2020/12/13 00:05:43;;;;;;;21.50;15.50;;;12.00;99.90;;;;;;5014193;28;20744;-74
2020/12/13 00:08:08;;;;;;;24.00;15.67;;;12.00;99.90;;;;;;5015113;28;20179;-74
2020/12/13 00:10:34;;;;;;;21.80;15.80;;;12.00;99.90;;;;;;5014025;28;20899;-74
2020/12/13 00:13:00;;;;;;;21.30;16.00;;;12.00;99.90;;;;;;5011768;28;20531;-74
2020/12/13 00:15:26;;;;;;;22.07;16.27;;;12.10;99.90;;;;;;5012414;28;20217;-74
2020/12/13 00:17:52;;;;;;;19.73;15.40;;;12.10;99.90;;;;;;5014335;28;20236;-74
2020/12/13 00:20:18;;;;;;;22.43;15.13;;;12.10;99.90;;;;;;5014678;28;20894;-74
2020/12/13 00:22:45;;;;;;;19.00;15.50;;;12.10;99.90;;;;;;5013980;28;20185;-74
2020/12/13 00:25:11;;;;;;;19.13;14.10;;;12.10;99.90;;;;;;5014188;28;20905;-74
2020/12/13 00:27:38;;;;;;;20.77;14.43;;;12.10;99.90;;;;;;5013897;28;20987;-74
2020/12/13 00:30:05;;;;;;;20.07;14.23;;;12.10;99.90;;;;;;5014162;28;20414;-73
2020/12/13 00:32:31;;;;;;;22.10;14.90;;;12.10;99.90;;;;;;5013761;28;20426;-74
2020/12/13 00:34:58;;;;;;;19.77;15.37;;;12.10;99.90;;;;;;5014179;28;20494;-74
2020/12/13 00:37:25;;;;;;;19.10;14.57;;;12.10;99.90;;;;;;5013431;28;20414;-75
2020/12/13 00:39:51;;;;;;;19.30;14.67;;;12.00;99.90;;;;;;5014121;28;20807;-74
2020/12/13 00:42:17;;;;;;;23.93;14.90;;;12.10;99.90;;;;;;5009943;28;20420;-73
2020/12/13 00:44:43;;;;;;;21.13;14.83;;;12.10;99.90;;;;;;5013098;28;20689;-74
2020/12/13 00:47:08;;;;;;;19.47;14.53;;;12.20;99.90;;;;;;5012682;28;20448;-74
2020/12/13 00:49:35;;;;;;;21.07;14.53;;;12.20;99.90;;;;;;5013287;28;20889;-74
2020/12/13 00:52:03;;;;;;;22.47;15.97;;;12.20;99.90;;;;;;5014054;28;20185;-74
2020/12/13 00:54:28;;;;;;;22.63;15.90;;;12.20;99.90;;;;;;5012911;28;20455;-74
2020/12/13 00:56:54;;;;;;;23.67;15.40;;;12.10;99.90;;;;;;5013731;28;20782;-74
2020/12/13 00:59:20;;;;;;;24.90;16.23;;;12.10;99.90;;;;;;5013909;28;20173;-73
2020/12/13 01:01:46;;;;;;;24.47;16.50;;;12.10;99.90;;;;;;5013105;28;20419;-74
2020/12/13 01:04:11;;;;;;;23.37;16.50;;;12.10;99.90;;;;;;5012596;28;20639;-74
2020/12/13 01:06:37;;;;;;;23.50;16.20;;;12.10;99.90;;;;;;5012864;28;20325;-74
2020/12/13 01:09:03;;;;;;;24.33;16.93;;;12.10;99.90;;;;;;5013720;28;20577;-74
2020/12/13 01:11:32;;;;;;;23.83;16.40;;;12.20;99.90;;;;;;5012779;28;20183;-74
2020/12/13 01:13:59;;;;;;;23.77;16.50;;;12.20;99.90;;;;;;5013298;28;20425;-73
2020/12/13 01:16:26;;;;;;;24.17;16.77;;;12.20;99.90;;;;;;5012674;28;20842;-75
2020/12/13 01:18:52;;;;;;;26.67;16.87;;;12.10;99.90;;;;;;5013166;28;20433;-73
2020/12/13 01:21:20;;;;;;;27.13;17.40;;;12.20;99.90;;;;;;5013462;28;20410;-73
2020/12/13 01:23:46;;;;;;;23.20;16.77;;;12.10;99.90;;;;;;5012899;28;20431;-74
2020/12/13 01:26:16;;;;;;;23.17;15.93;;;12.10;99.90;;;;;;5013641;28;20465;-73
2020/12/13 01:28:42;;;;;;;22.57;15.80;;;12.10;99.90;;;;;;5012551;28;20515;-74
2020/12/13 01:31:12;;;;;;;20.20;15.70;;;12.20;99.90;;;;;;5013316;28;20419;-73
2020/12/13 01:33:38;;;;;;;21.03;14.93;;;12.10;99.90;;;;;;5012825;28;20421;-74
2020/12/13 01:36:04;;;;;;;19.80;15.00;;;12.10;99.90;;;;;;5017756;28;20543;-74
2020/12/13 01:38:29;;;;;;;20.17;15.07;;;12.10;99.90;;;;;;5020991;28;20180;-74
2020/12/13 01:40:57;;;;;;;20.20;14.30;;;12.10;99.90;;;;;;5022605;28;20484;-74
2020/12/13 01:43:23;;;;;;;18.30;13.70;;;12.10;99.90;;;;;;5021323;28;20209;-75
2020/12/13 01:45:49;;;;;;;19.03;15.17;;;12.20;99.90;;;;;;4998464;28;20509;-74
2020/12/13 01:48:15;;;;;;;21.63;15.07;;;12.20;99.90;;;;;;4993533;28;20510;-74
2020/12/13 01:50:52;;;;;;;16.83;13.93;;;12.20;99.90;;;;;;4992713;28;20210;-74
2020/12/13 01:53:24;;;;;;;18.20;14.23;;;12.20;99.90;;;;;;4993657;28;20478;-74
2020/12/13 01:55:51;;;;;;;17.63;14.10;;;12.20;99.90;;;;;;5010293;28;20468;-74
2020/12/13 01:58:24;;;;;;;20.67;14.83;;;12.20;99.90;;;;;;5023539;28;20921;-75
2020/12/13 02:00:52;;;;;;;17.83;14.07;;;12.20;99.90;;;;;;5018230;28;20447;-74
2020/12/13 02:03:23;;;;;;;18.43;13.70;;;12.20;99.90;;;;;;5019146;28;20417;-74
2020/12/13 02:06:01;;;;;;;17.37;13.87;;;12.20;99.90;;;;;;4993440;28;20458;-74
2020/12/13 02:08:39;;;;;;;16.47;13.50;;;12.20;99.90;;;;;;5008397;28;20547;-75
2020/12/13 02:11:05;;;;;;;20.63;14.50;;;12.10;99.90;;;;;;5012069;28;20414;-74
2020/12/13 02:13:31;;;;;;;19.87;14.70;;;12.10;99.90;;;;;;5010689;28;20495;-75
2020/12/13 02:15:57;;;;;;;18.90;14.73;;;12.10;99.90;;;;;;5010716;28;20471;-74
2020/12/13 02:18:23;;;;;;;18.60;14.83;;;12.10;99.90;;;;;;5012674;28;20274;-74
2020/12/13 02:20:49;;;;;;;19.90;15.17;;;12.10;99.90;;;;;;5010107;28;20456;-74
2020/12/13 02:23:15;;;;;;;20.03;15.17;;;12.10;99.90;;;;;;5009855;28;20430;-74
2020/12/13 02:25:40;;;;;;;17.80;13.30;;;12.10;99.90;;;;;;5011351;28;20775;-74
2020/12/13 02:28:06;;;;;;;16.70;13.53;;;12.20;99.90;;;;;;5012737;28;20583;-74
2020/12/13 02:30:32;;;;;;;17.27;14.00;;;12.20;99.90;;;;;;5011723;28;20504;-75
2020/12/13 02:32:58;;;;;;;17.40;13.80;;;12.10;99.90;;;;;;5012553;28;20179;-74
2020/12/13 02:35:24;;;;;;;18.00;14.20;;;12.10;99.90;;;;;;5012122;28;20688;-74
2020/12/13 02:37:50;;;;;;;17.80;12.87;;;12.20;99.90;;;;;;5010385;28;20421;-74
2020/12/13 02:40:16;;;;;;;19.03;14.00;;;12.20;99.90;;;;;;5018520;28;20401;-74
2020/12/13 02:42:42;;;;;;;16.03;12.93;;;12.10;99.90;;;;;;5018804;28;20410;-74
2020/12/13 02:45:08;;;;;;;22.00;14.17;;;12.10;99.90;;;;;;5017842;28;20418;-73
2020/12/13 02:47:34;;;;;;;18.10;14.07;;;12.20;99.90;;;;;;5018448;28;20175;-74
2020/12/13 02:49:59;;;;;;;17.80;13.93;;;12.20;99.90;;;;;;5018902;28;20173;-74
2020/12/13 02:52:25;;;;;;;17.07;13.07;;;12.20;99.90;;;;;;5014946;28;20196;-75
2020/12/13 02:54:51;;;;;;;18.90;14.07;;;12.20;99.90;;;;;;5016635;28;20252;-74
2020/12/13 02:57:17;;;;;;;15.57;12.47;;;12.20;99.90;;;;;;5018842;28;20255;-74
2020/12/13 02:59:42;;;;;;;15.63;13.20;;;12.20;99.90;;;;;;5018003;28;20171;-74
2020/12/13 03:02:08;;;;;;;16.37;13.43;;;12.20;99.90;;;;;;5018787;28;20716;-74
2020/12/13 03:04:34;;;;;;;15.90;12.10;;;12.20;99.90;;;;;;5018015;28;20208;-74
2020/12/13 03:07:00;;;;;;;19.80;13.97;;;12.20;99.90;;;;;;5017621;28;20194;-74
2020/12/13 03:09:25;;;;;;;18.33;13.23;;;12.20;99.90;;;;;;5017648;28;20193;-74
2020/12/13 03:11:51;;;;;;;16.10;12.60;;;12.20;99.90;;;;;;5017636;28;20171;-74
2020/12/13 03:14:17;;;;;;;16.07;13.10;;;12.20;99.90;;;;;;5018901;28;20219;-74
2020/12/13 03:16:42;;;;;;;17.90;14.07;;;12.20;99.90;;;;;;5017914;28;20193;-74
2020/12/13 03:19:08;;;;;;;18.07;14.07;;;12.20;99.90;;;;;;5018656;28;20188;-74
2020/12/13 03:21:34;;;;;;;19.13;14.60;;;12.20;99.90;;;;;;5017495;28;20253;-74
2020/12/13 03:24:00;;;;;;;23.10;15.37;;;12.20;99.90;;;;;;5016346;28;20701;-74
2020/12/13 03:26:25;;;;;;;20.50;15.60;;;12.20;99.90;;;;;;5017853;28;20258;-74
2020/12/13 03:28:51;;;;;;;25.13;15.10;;;12.10;99.90;;;;;;5017760;28;20179;-74
2020/12/13 03:31:17;;;;;;;22.63;15.93;;;12.20;99.90;;;;;;5018585;28;20182;-74
2020/12/13 03:33:42;;;;;;;22.50;15.10;;;12.20;99.90;;;;;;5017764;28;20182;-74
2020/12/13 03:36:08;;;;;;;25.07;16.20;;;12.10;99.90;;;;;;5018553;28;20198;-74
2020/12/13 03:38:34;;;;;;;24.17;16.17;;;12.10;99.90;;;;;;5017771;28;20172;-74
2020/12/13 03:41:00;;;;;;;26.60;15.80;;;12.10;99.90;;;;;;5018491;28;20670;-74
2020/12/13 03:43:25;;;;;;;23.43;16.37;;;12.10;99.90;;;;;;5018401;28;20181;-73
2020/12/13 03:45:51;;;;;;;27.77;17.23;;;12.10;99.90;;;;;;5017673;28;20209;-74
2020/12/13 03:48:17;;;;;;;25.77;17.33;;;12.10;99.90;;;;;;5018658;28;20183;-74
2020/12/13 03:50:43;;;;;;;23.33;16.10;;;12.10;99.90;;;;;;5014825;28;20682;-74
2020/12/13 03:53:11;;;;;;;24.87;17.37;;;12.10;99.90;;;;;;5015340;28;20511;-74
2020/12/13 03:55:38;;;;;;;25.90;17.03;;;12.10;99.90;;;;;;5013619;28;20475;-74
2020/12/13 03:58:04;;;;;;;26.90;17.80;;;12.10;99.90;;;;;;5015206;28;20801;-74
2020/12/13 04:00:31;;;;;;;24.00;16.70;;;12.10;99.90;;;;;;5014987;28;20637;-75
2020/12/13 04:02:57;;;;;;;29.67;17.17;;;12.10;99.90;;;;;;5014614;28;20427;-74
2020/12/13 04:05:24;;;;;;;26.77;17.43;;;12.10;99.90;;;;;;5015025;28;20822;-74
2020/12/13 04:07:50;;;;;;;26.97;17.30;;;12.10;99.90;;;;;;5014193;28;20414;-74
2020/12/13 04:10:17;;;;;;;27.57;18.97;;;12.10;99.90;;;;;;5013713;28;20411;-74
2020/12/13 04:12:43;;;;;;;26.83;18.80;;;12.10;99.90;;;;;;5012840;28;20468;-74
2020/12/13 04:15:09;;;;;;;30.43;18.43;;;12.10;99.90;;;;;;5014766;28;20509;-74
2020/12/13 04:17:35;;;;;;;30.97;19.43;;;12.10;99.90;;;;;;5014121;28;20939;-75
2020/12/13 04:20:01;;;;;;;26.90;18.40;;;12.10;99.90;;;;;;5013587;28;20498;-74
2020/12/13 04:22:27;;;;;;;32.03;20.80;;;12.10;99.90;;;;;;5014754;28;20182;-74
2020/12/13 04:24:52;;;;;;;25.47;18.97;;;12.20;99.90;;;;;;5013314;28;20426;-74
2020/12/13 04:27:18;;;;;;;27.93;19.63;;;12.10;99.90;;;;;;5014578;28;20222;-74
2020/12/13 04:29:44;;;;;;;29.83;20.37;;;12.10;99.90;;;;;;5013735;28;20244;-74
2020/12/13 04:32:10;;;;;;;30.63;20.47;;;12.10;99.90;;;;;;5014679;28;20175;-74
2020/12/13 04:34:36;;;;;;;32.00;19.67;;;12.10;99.90;;;;;;5013565;28;20537;-75
2020/12/13 04:37:02;;;;;;;30.30;20.20;;;12.10;99.90;;;;;;5013294;28;20909;-74
2020/12/13 04:39:28;;;;;;;30.70;19.83;;;12.10;99.90;;;;;;5014351;28;20432;-74
2020/12/13 04:41:54;;;;;;;31.47;20.33;;;12.10;99.90;;;;;;5013593;28;20592;-74
2020/12/13 04:44:21;;;;;;;32.20;21.13;;;12.10;99.90;;;;;;5014369;28;20468;-74
2020/12/13 04:46:48;;;;;;;33.00;21.50;;;12.10;99.90;;;;;;5013230;28;20441;-74
2020/12/13 04:49:14;;;;;;;29.13;20.63;;;12.10;99.90;;;;;;5014163;28;20463;-74
2020/12/13 04:51:45;;;;;;;32.53;21.70;;;12.10;99.90;;;;;;5012970;28;20504;-74
2020/12/13 04:54:20;;;;;;;29.87;20.73;;;12.10;99.90;;;;;;5014300;28;20507;-74
2020/12/13 04:56:51;;;;;;;33.90;21.37;;;12.10;99.90;;;;;;5012644;28;20460;-74
2020/12/13 04:59:17;;;;;;;34.17;21.07;;;12.10;99.90;;;;;;5014132;28;20429;-74
2020/12/13 05:01:45;;;;;;;33.83;22.47;;;12.10;99.90;;;;;;5011699;28;20416;-74
2020/12/13 05:04:11;;;;;;;35.17;22.73;;;12.10;99.90;;;;;;5013869;28;20502;-74
2020/12/13 05:06:39;;;;;;;31.07;22.37;;;12.10;99.90;;;;;;5013176;28;20409;-76
2020/12/13 05:09:07;;;;;;;34.60;22.93;;;12.10;99.90;;;;;;5013887;28;20898;-74
2020/12/13 05:11:33;;;;;;;31.77;20.40;;;12.10;99.90;;;;;;5013787;28;20596;-74
2020/12/13 05:13:58;;;;;;;36.60;22.87;;;12.10;99.90;;;;;;5011790;28;20956;-74
2020/12/13 05:16:24;;;;;;;35.53;22.63;;;12.10;99.90;;;;;;5013679;28;20662;-74
2020/12/13 05:18:52;;;;;;;32.63;22.87;;;12.10;99.90;;;;;;5012875;28;20430;-74
2020/12/13 05:21:22;;;;;;;34.27;21.13;;;12.10;99.90;;;;;;5013597;28;20168;-74
2020/12/13 05:23:49;;;;;;;33.07;22.00;;;12.10;99.90;;;;;;5012948;28;20430;-74
2020/12/13 05:26:15;;;;;;;33.00;22.50;;;12.10;99.90;;;;;;5012761;28;20550;-74
2020/12/13 05:28:52;;;;;;;33.57;22.33;;;12.10;99.90;;;;;;5012930;28;20448;-75
2020/12/13 05:31:20;;;;;;;31.27;21.53;;;12.10;99.90;;;;;;5013329;28;20424;-74
2020/12/13 05:34:00;;;;;;;32.73;22.17;;;12.10;99.90;;;;;;5012638;28;20535;-74
2020/12/13 05:36:26;;;;;;;34.73;22.63;;;12.10;99.90;;;;;;5013414;28;20461;-74
2020/12/13 05:38:57;;;;;;;31.33;20.73;;;12.10;99.90;;;;;;5012295;28;20429;-74
2020/12/13 05:41:31;;;;;;;36.20;23.90;;;12.10;99.90;;;;;;5012071;28;20405;-74
2020/12/13 05:44:12;;;;;;;34.70;22.20;;;12.10;99.90;;;;;;5012450;28;20507;-74
2020/12/13 05:51:42;;;;;;;30.20;22.37;;;12.10;99.90;;;;;;5012255;28;20174;-74
2020/12/13 05:54:24;;;;;;;34.13;22.33;;;12.10;99.90;;;;;;5011781;28;20501;-74
2020/12/13 05:56:58;;;;;;;32.63;20.90;;;12.10;99.90;;;;;;5011650;28;20451;-74
2020/12/13 05:59:25;;;;;;;33.10;22.20;;;12.20;99.90;;;;;;5012852;28;20798;-74
2020/12/13 06:01:54;;;;;;;32.63;23.10;;;12.10;99.90;;;;;;5012193;28;20429;-74
2020/12/13 06:04:30;;;;;;;33.50;21.77;;;12.20;99.90;;;;;;5012858;28;20451;-74
2020/12/13 06:07:00;;;;;;;34.50;23.03;;;12.10;99.90;;;;;;5010953;28;20408;-74
2020/12/13 06:09:35;;;;;;;35.53;22.57;;;12.10;99.90;;;;;;5012522;28;20443;-74
2020/12/13 06:12:06;;;;;;;32.83;22.53;;;12.10;99.90;;;;;;5012018;28;20400;-74
2020/12/13 06:14:33;;;;;;;31.83;21.30;;;12.10;99.90;;;;;;5010888;28;20404;-74
2020/12/13 06:17:01;;;;;;;34.67;23.17;;;12.10;99.90;;;;;;5011957;28;20713;-74
2020/12/13 06:19:31;;;;;;;35.20;22.80;;;12.10;99.90;;;;;;5012736;28;20563;-74
2020/12/13 06:21:59;;;;;;;32.43;23.93;;;12.10;99.90;;;;;;5011544;28;20521;-74
2020/12/13 06:24:25;;;;;;;31.07;21.57;;;12.10;99.90;;;;;;5012583;28;20424;-74
2020/12/13 06:26:52;;;;;;;33.60;22.17;;;12.10;99.90;;;;;;5011158;28;20493;-74
2020/12/13 06:29:20;;;;;;;30.00;20.60;;;12.10;99.90;;;;;;5010083;28;20444;-74
2020/12/13 06:31:47;;;;;;;29.23;20.13;;;12.10;99.90;;;;;;5011747;28;21064;-75
2020/12/13 06:34:13;;;;;;;29.80;20.20;;;12.10;99.90;;;;;;5012514;28;20478;-74
2020/12/13 06:36:40;;;;;;;29.93;21.67;;;12.10;99.90;;;;;;5012337;28;20453;-74
2020/12/13 06:39:16;;;;;;;28.70;19.67;;;12.10;99.90;;;;;;5012279;28;20424;-74
2020/12/13 06:41:44;;;;;;;25.60;18.80;;;12.10;99.90;;;;;;5011940;28;20415;-76
2020/12/13 06:44:12;;;;;;;27.50;19.10;;;12.10;99.90;;;;;;5011594;28;20412;-75
2020/12/13 06:46:40;;;;;;;27.20;18.07;;;12.10;99.90;;;;;;5012439;28;20428;-74
2020/12/13 06:49:14;;;;;;;27.80;18.63;;;12.00;99.90;;;;;;5012891;28;20410;-74
2020/12/13 06:51:42;;;;;;;26.03;17.37;;;12.10;99.90;;;;;;5012053;28;20489;-75
2020/12/13 06:54:10;;;;;;;29.53;19.27;;;12.10;99.90;;;;;;5011782;28;20427;-74
2020/12/13 06:56:37;;;;;;;28.73;18.20;;;12.10;99.90;;;;;;5012234;28;20453;-74
2020/12/13 06:59:05;;;;;;;26.70;18.77;;;12.10;99.90;;;;;;5011335;28;20479;-74
2020/12/13 07:01:37;;;;;;;27.37;18.07;;;12.10;99.90;;;;;;5009795;28;20779;-74
2020/12/13 07:04:21;;;;;;;26.90;17.53;;;12.10;99.90;;;;;;5011047;28;21070;-74
2020/12/13 07:06:50;;;;;;;27.03;17.33;;;12.00;99.90;;;;;;5011431;28;20468;-74
2020/12/13 07:09:18;;;;;;;27.57;18.37;;;12.10;99.90;;;;;;5012166;28;20512;-74
2020/12/13 07:11:45;;;;;;;26.47;16.80;;;12.00;99.90;;;;;;5011690;28;20404;-75
2020/12/13 07:14:14;;;;;;;25.23;16.37;;;12.00;99.90;;;;;;5012149;28;20414;-74
2020/12/13 07:16:49;;;;;;;25.80;16.77;;;12.00;99.90;;;;;;5009629;28;20495;-74
2020/12/13 07:19:16;;;;;;;26.40;17.70;;;12.00;99.90;;;;;;5012149;28;20425;-74
2020/12/13 07:21:44;;;;;;;23.43;15.80;;;12.00;99.90;;;;;;5011855;28;20437;-75
2020/12/13 07:24:11;;;;;;;24.70;17.53;;;12.10;99.90;;;;;;5011799;28;20436;-74
2020/12/13 07:26:39;;;;;;;26.23;17.17;;;12.10;99.90;;;;;;4997698;28;20464;-74
2020/12/13 07:29:15;;;;;;;24.13;16.13;;;12.00;99.90;;;;;;5014930;28;21055;-74
2020/12/13 07:31:44;;;;;;;24.37;15.87;;;12.00;99.90;;;;;;5014691;28;20462;-74
2020/12/13 07:34:10;;;;;;;22.77;16.20;;;12.10;99.90;;;;;;5014764;28;20475;-74
2020/12/13 07:36:36;;;;;;;22.47;16.67;;;12.10;99.90;;;;;;5015572;28;20453;-74
2020/12/13 07:39:05;;;;;;;21.40;15.80;;;12.10;99.90;;;;;;5014457;28;20970;-74
2020/12/13 07:41:31;;;;;;;22.13;15.87;;;12.10;99.90;;;;;;5015471;28;20573;-74
2020/12/13 07:44:02;;;;;;;24.33;16.50;;;12.10;99.90;;;;;;5014430;28;20490;-74
2020/12/13 07:46:31;;;;;;;23.50;16.00;;;12.10;99.90;;;;;;5015137;28;20910;-74
2020/12/13 07:49:08;;;;;;;22.53;16.03;;;12.10;99.90;;;;;;5013484;28;20437;-74
2020/12/13 07:51:36;;;;;;;20.23;15.60;;;12.10;99.90;;;;;;5015285;28;20759;-74
2020/12/13 07:54:22;;;;;;;22.07;15.20;;;12.10;99.90;;;;;;5014461;28;20436;-74
2020/12/13 07:56:50;;;;;;;21.00;15.33;;;12.20;99.90;;;;;;5014259;28;20463;-75
2020/12/13 07:59:18;;;;;;;21.47;15.77;;;12.10;99.90;;;;;;5015157;28;20433;-74
2020/12/13 08:01:45;;;;;;;18.67;13.13;;;12.10;99.90;;;;;;5013909;28;20459;-71
2020/12/13 08:04:13;;;;;;;19.33;14.87;;;12.30;99.90;;;;;;5014652;28;20425;-72
2020/12/13 08:06:38;;;;;;;18.57;13.13;;;12.30;99.90;;;;;;5015073;28;20414;-71
2020/12/13 08:09:12;;;;;;;17.60;13.33;;;12.50;99.90;;;;;;5014258;28;20617;-71
2020/12/13 08:11:39;;;;;;;17.30;13.07;;;12.60;99.90;;;;;;5015130;28;20213;-72
2020/12/13 08:14:06;;;;;;;16.33;11.73;;;12.60;99.90;;;;;;5014053;28;20429;-71
2020/12/13 08:16:33;;;;;;;13.07;11.23;;;12.80;99.90;;;;;;5014805;28;20999;-71
2020/12/13 08:19:15;;;;;;;18.93;15.67;;;12.80;99.90;;;;;;5014192;28;20427;-71
2020/12/13 08:21:46;;;;;;;15.67;11.43;;;12.80;99.90;;;;;;5014653;28;20390;-71
2020/12/13 08:24:15;;;;;;;10.83;9.60;;;12.90;99.90;;;;;;5013984;28;20533;-71
2020/12/13 08:26:43;;;;;;;10.73;9.63;;;12.80;99.90;;;;;;5014459;28;20555;-72
2020/12/13 08:29:09;;;;;;;11.27;9.47;;;12.80;99.90;;;;;;5012451;28;20914;-72
2020/12/13 08:31:36;;;;;;;9.30;8.40;;;12.90;99.90;;;;;;5014542;28;20411;-72
2020/12/13 08:34:04;;;;;;;9.97;8.93;;;12.90;99.90;;;;;;5013753;28;20409;-72
2020/12/13 08:36:30;;;;;;;9.13;8.27;;;12.90;99.90;;;;;;5013786;28;20806;-72
2020/12/13 08:39:11;;;;;;;13.20;10.87;;;12.90;99.90;;;;;;5013645;28;20419;-71
2020/12/13 08:41:45;;;;;;;13.20;11.73;;;12.80;99.90;;;;;;5014301;28;21071;-72
2020/12/13 08:44:27;;;;;;;12.57;10.43;;;12.90;99.90;;;;;;5013586;28;21255;-71
2020/12/13 08:46:53;;;;;;;11.87;10.63;;;13.00;99.90;;;;;;5013713;28;20414;-72
2020/12/13 08:49:35;;;;;;;14.00;12.30;;;12.90;99.90;;;;;;5014010;28;20414;-71
2020/12/13 08:52:21;;;;;;;14.33;12.50;;;13.00;99.90;;;;;;5012964;28;20772;-72
2020/12/13 08:54:56;;;;;;;21.40;15.93;;;13.00;99.90;;;;;;5013940;28;20432;-71
2020/12/13 08:57:29;;;;;;;20.80;16.50;;;12.90;99.90;;;;;;5013822;28;20459;-72
2020/12/13 09:00:10;;;;;;;19.10;15.17;;;12.90;99.90;;;;;;5013347;28;20904;-72
2020/12/13 09:02:36;;;;;;;22.47;15.90;;;12.80;99.80;;;;;;5013845;28;20417;-72
2020/12/13 09:05:06;;;;;;;20.43;16.00;;;12.60;99.90;;;;;;5011956;28;20413;-72
2020/12/13 09:07:32;;;;;;;23.70;18.60;;;12.50;99.90;;;;;;5012422;28;20417;-72
2020/12/13 09:10:18;;;;;;;22.13;16.43;;;12.50;99.90;;;;;;5013013;28;20433;-72
2020/12/13 09:12:44;;;;;;;21.90;15.00;;;12.60;99.90;;;;;;5012366;28;20763;-72
2020/12/13 09:15:14;;;;;;;24.00;17.10;;;12.70;99.90;;;;;;5011558;28;20449;-72
2020/12/13 09:17:40;;;;;;;25.77;18.13;;;12.80;99.90;;;;;;5012305;28;20184;-72
2020/12/13 09:20:07;;;;;;;609.70;330.20;;;12.80;99.90;;;;;;5008621;28;20434;-73
2020/12/13 09:22:33;;;;;;;36.53;25.00;;;12.90;99.90;;;;;;5012231;28;20486;-72
2020/12/13 09:25:00;;;;;;;21.80;17.97;;;13.10;99.90;;;;;;5011611;28;20509;-72
2020/12/13 09:27:26;;;;;;;19.13;15.67;;;13.10;99.20;;;;;;5011760;28;20450;-72
2020/12/13 09:29:52;;;;;;;23.13;17.23;;;13.20;99.60;;;;;;5011585;28;20430;-75
2020/12/13 09:32:20;;;;;;;17.47;14.50;;;13.20;99.30;;;;;;5012075;28;20461;-72
2020/12/13 09:34:47;;;;;;;18.07;15.17;;;13.20;99.40;;;;;;5012710;28;20469;-72
2020/12/13 09:37:17;;;;;;;19.13;15.23;;;13.10;98.70;;;;;;5012570;28;20509;-72
2020/12/13 09:39:43;;;;;;;18.60;15.47;;;12.90;98.70;;;;;;5011898;28;20478;-72
2020/12/13 09:42:11;;;;;;;19.10;14.40;;;12.80;98.90;;;;;;5009533;28;20605;-72
2020/12/13 09:44:38;;;;;;;16.80;14.70;;;12.70;98.90;;;;;;5012182;28;20448;-71
2020/12/13 09:47:04;;;;;;;18.87;14.33;;;12.50;99.90;;;;;;5012259;28;20761;-71
2020/12/13 09:49:30;;;;;;;17.70;14.60;;;12.60;99.90;;;;;;4994305;28;20410;-71
2020/12/13 09:52:02;;;;;;;15.87;13.50;;;12.70;99.90;;;;;;5010991;28;20490;-73
2020/12/13 09:54:28;;;;;;;16.27;14.10;;;12.70;99.90;;;;;;5013000;28;20472;-72
2020/12/13 09:56:54;;;;;;;19.03;13.73;;;12.60;99.10;;;;;;5011956;28;20465;-73
2020/12/13 09:59:21;;;;;;;19.30;14.83;;;12.40;99.90;;;;;;5012943;28;20400;-72
2020/12/13 10:01:47;;;;;;;14.47;12.90;;;12.50;99.90;;;;;;5012905;28;20220;-72
2020/12/13 10:04:14;;;;;;;19.27;14.30;;;12.40;99.90;;;;;;5012084;28;20409;-72
2020/12/13 10:09:08;;;;;;;18.97;12.77;;;12.60;99.90;;;;;;5011951;28;20423;-72
2020/12/13 10:11:37;;;;;;;14.43;12.47;;;12.90;99.90;;;;;;5012824;28;20414;-72
2020/12/13 10:14:05;;;;;;;16.77;12.43;;;12.90;98.70;;;;;;5011945;28;20948;-72
2020/12/13 10:16:30;;;;;;;15.53;12.50;;;13.00;98.80;;;;;;5012828;28;20460;-71
2020/12/13 10:18:57;;;;;;;15.43;12.43;;;13.20;98.50;;;;;;5011926;28;20521;-71
2020/12/13 10:21:27;;;;;;;12.97;11.67;;;13.40;97.70;;;;;;5012648;28;20267;-71
2020/12/13 10:23:54;;;;;;;13.23;11.70;;;13.50;97.60;;;;;;5012242;28;20422;-73
2020/12/13 10:26:27;;;;;;;64.53;46.73;;;13.60;96.90;;;;;;5012368;28;20455;-71
2020/12/13 10:28:54;;;;;;;334.33;205.23;;;13.70;97.90;;;;;;5012203;28;20442;-73
2020/12/13 10:31:26;;;;;;;246.77;149.03;;;13.90;98.60;;;;;;5012469;28;20441;-72
2020/12/13 10:33:52;;;;;;;27.30;19.50;;;14.00;97.90;;;;;;5012398;28;20483;-74
2020/12/13 10:36:18;;;;;;;15.20;13.60;;;14.00;96.40;;;;;;5011485;28;20550;-72
2020/12/13 10:38:43;;;;;;;18.40;14.57;;;14.00;95.80;;;;;;5012435;28;20199;-72
2020/12/13 10:41:09;;;;;;;15.87;14.30;;;14.00;97.40;;;;;;5011684;28;20179;-70
2020/12/13 10:43:36;;;;;;;17.90;14.30;;;13.90;96.40;;;;;;5012275;28;20186;-70
2020/12/13 10:46:05;;;;;;;19.50;16.27;;;13.80;95.40;;;;;;5011638;28;20418;-72
2020/12/13 10:48:32;;;;;;;15.90;14.30;;;13.60;95.30;;;;;;5012005;28;20509;-69
2020/12/13 10:50:59;;;;;;;19.00;13.90;;;13.30;95.60;;;;;;5024048;28;20424;-71
2020/12/13 10:53:25;;;;;;;21.33;14.73;;;13.10;96.00;;;;;;5030925;28;20412;-69
2020/12/13 10:55:51;;;;;;;17.43;14.43;;;12.90;96.40;;;;;;5030751;28;20456;-72
2020/12/13 10:58:17;;;;;;;15.20;13.60;;;12.80;96.60;;;;;;5031153;28;20425;-72
2020/12/13 11:00:43;;;;;;;15.73;14.03;;;12.60;96.90;;;;;;5033816;28;20459;-72
2020/12/13 11:03:09;;;;;;;16.13;14.53;;;12.50;97.30;;;;;;5033383;28;20495;-72
2020/12/13 11:05:35;;;;;;;16.43;13.77;;;12.40;97.60;;;;;;5035978;28;20188;-70
2020/12/13 11:08:00;;;;;;;15.90;14.27;;;12.30;97.70;;;;;;5035101;28;20409;-70
2020/12/13 11:10:26;;;;;;;17.67;13.83;;;12.20;97.90;;;;;;5020327;28;20236;-69
2020/12/13 11:12:52;;;;;;;16.87;14.80;;;12.10;98.10;;;;;;5026539;28;20192;-70
2020/12/13 11:15:18;;;;;;;17.20;13.77;;;12.10;98.30;;;;;;5022985;28;20228;-69
2020/12/13 11:17:44;;;;;;;18.20;13.60;;;12.00;98.40;;;;;;5015899;28;20405;-70
2020/12/13 11:20:09;;;;;;;17.33;14.03;;;11.90;98.40;;;;;;5032617;28;20189;-72
2020/12/13 11:22:35;;;;;;;18.00;13.20;;;11.90;98.60;;;;;;5020719;28;20184;-69
2020/12/13 11:25:01;;;;;;;15.77;14.00;;;11.90;98.60;;;;;;5016162;28;20266;-70
2020/12/13 11:27:27;;;;;;;15.57;13.90;;;11.90;98.60;;;;;;5029076;28;20757;-69
2020/12/13 11:29:53;;;;;;;15.77;13.73;;;11.90;99.00;;;;;;5035450;28;20525;-69
2020/12/13 11:32:19;;;;;;;15.83;12.73;;;11.80;98.90;;;;;;5018079;28;20416;-69
2020/12/13 11:34:44;;;;;;;16.67;12.50;;;11.90;98.80;;;;;;5018223;28;20196;-71
2020/12/13 11:37:10;;;;;;;14.10;11.63;;;11.90;98.40;;;;;;5034733;28;20179;-69
2020/12/13 11:39:37;;;;;;;15.53;12.40;;;11.90;98.50;;;;;;5035752;28;20279;-69
2020/12/13 11:42:04;;;;;;;12.43;11.07;;;11.90;98.50;;;;;;5035050;28;20181;-70
2020/12/13 11:44:30;;;;;;;14.93;11.00;;;11.90;98.40;;;;;;5035585;28;20431;-69
2020/12/13 11:46:55;;;;;;;12.77;11.47;;;11.90;98.40;;;;;;5035666;28;20461;-71
2020/12/13 11:49:24;;;;;;;14.80;12.00;;;11.90;98.40;;;;;;5035552;28;20411;-69
2020/12/13 11:51:50;;;;;;;12.70;11.27;;;11.90;98.10;;;;;;5033827;28;20425;-69
2020/12/13 11:54:16;;;;;;;11.60;10.40;;;11.90;98.20;;;;;;5032875;28;20428;-69
2020/12/13 11:56:42;;;;;;;13.57;11.00;;;11.90;98.00;;;;;;5034919;28;20228;-70
2020/12/13 11:59:09;;;;;;;11.80;10.70;;;11.90;98.10;;;;;;5007734;28;20512;-69
2020/12/13 12:01:35;;;;;;;15.37;10.97;;;11.90;98.30;;;;;;5034859;28;20804;-69
2020/12/13 12:04:00;;;;;;;12.23;10.80;;;11.90;98.40;;;;;;5033212;28;20413;-71
2020/12/13 12:06:27;;;;;;;10.93;9.90;;;11.80;98.10;;;;;;5034672;28;20784;-69
2020/12/13 12:08:53;;;;;;;11.77;10.63;;;11.80;97.70;;;;;;5034690;28;20219;-69
2020/12/13 12:11:23;;;;;;;12.23;10.33;;;11.80;97.60;;;;;;5033118;28;20413;-69
2020/12/13 12:13:49;;;;;;;10.23;8.93;;;11.80;97.20;;;;;;5034605;28;20417;-69
2020/12/13 12:16:15;;;;;;;12.10;9.10;;;11.60;97.50;;;;;;5034343;28;20445;-69
2020/12/13 12:18:41;;;;;;;11.20;9.60;;;11.60;97.50;;;;;;5034899;28;20185;-69
2020/12/13 12:21:12;;;;;;;9.77;8.63;;;11.60;97.30;;;;;;5034323;28;20422;-69
2020/12/13 12:23:39;;;;;;;9.87;8.47;;;11.60;97.20;;;;;;5034580;28;20420;-69
2020/12/13 12:26:05;;;;;;;9.17;8.27;;;11.70;97.10;;;;;;5033807;28;20461;-69
2020/12/13 12:28:31;;;;;;;8.70;7.80;;;11.70;97.10;;;;;;5035025;28;20911;-69
2020/12/13 12:30:56;;;;;;;9.93;8.93;;;11.70;96.90;;;;;;5034663;28;20265;-69
2020/12/13 12:33:22;;;;;;;10.33;9.27;;;11.60;97.10;;;;;;5034126;28;20941;-69
2020/12/13 12:35:48;;;;;;;9.50;8.50;;;11.60;97.20;;;;;;5034664;28;20715;-69
2020/12/13 12:38:14;;;;;;;9.60;8.70;;;11.60;97.50;;;;;;5034055;28;20174;-69